Time;durP1;ratioP1;P1;durP2;ratioP2;P2;SDS_P1;SDS_P2;PMS_P1;PMS_P2;Temp;Humidity;BMP_temperature;BMP_pressure;BME280_temperature;BME280_humidity;BME280_pressure;Samples;Min_cycle;Max_cycle;Signal;HPM_P1;HPM_P2
2022/03/30 00:02:16;;;;;;;45.13;18.70;;;;;;;;;;4997557;28;93173;-75
2022/03/30 00:04:43;;;;;;;39.08;18.80;;;;;;;;;;4997162;28;93627;-74
2022/03/30 00:07:09;;;;;;;37.85;19.00;;;;;;;;;;4996619;28;92336;-75
2022/03/30 00:09:36;;;;;;;45.60;19.67;;;;;;;;;;4997092;28;93750;-74
2022/03/30 00:12:02;;;;;;;42.15;19.48;;;;;;;;;;4997610;28;91999;-74
2022/03/30 00:14:28;;;;;;;42.75;18.13;;;;;;;;;;4997246;28;92253;-75
2022/03/30 00:16:55;;;;;;;39.88;19.02;;;;;;;;;;4997062;28;92547;-74
2022/03/30 00:19:21;;;;;;;36.60;18.17;;;;;;;;;;4998661;28;95397;-73
2022/03/30 00:21:48;;;;;;;37.75;19.55;;;;;;;;;;4996224;28;95495;-74
2022/03/30 00:24:14;;;;;;;38.00;18.80;;;;;;;;;;4996902;28;93353;-74
2022/03/30 00:26:40;;;;;;;37.92;18.80;;;;;;;;;;4996916;28;92339;-75
2022/03/30 00:29:07;;;;;;;40.20;19.75;;;;;;;;;;4996887;28;93198;-74
2022/03/30 00:31:33;;;;;;;40.05;19.02;;;;;;;;;;4996666;28;93773;-74
2022/03/30 00:33:59;;;;;;;38.10;17.77;;;;;;;;;;4996990;28;92229;-74
2022/03/30 00:36:26;;;;;;;35.92;17.92;;;;;;;;;;4996701;28;93495;-74
2022/03/30 00:38:52;;;;;;;38.08;18.55;;;;;;;;;;4996525;28;93891;-73
2022/03/30 00:41:19;;;;;;;40.35;20.27;;;;;;;;;;4999758;28;92439;-74
2022/03/30 00:43:45;;;;;;;38.13;18.38;;;;;;;;;;4994198;28;96417;-74
2022/03/30 00:46:12;;;;;;;37.20;18.17;;;;;;;;;;4996064;28;92305;-74
2022/03/30 00:48:39;;;;;;;42.08;17.98;;;;;;;;;;4996643;28;93385;-73
2022/03/30 00:51:06;;;;;;;42.72;18.70;;;;;;;;;;4995246;28;93961;-73
2022/03/30 00:53:32;;;;;;;42.70;18.85;;;;;;;;;;4995760;28;92359;-73
2022/03/30 00:55:58;;;;;;;36.03;18.20;;;;;;;;;;4996257;28;93499;-74
2022/03/30 00:58:25;;;;;;;41.88;18.65;;;;;;;;;;4996371;28;93562;-74
2022/03/30 01:00:52;;;;;;;38.83;18.95;;;;;;;;;;4996891;28;91594;-74
2022/03/30 01:03:19;;;;;;;46.72;19.05;;;;;;;;;;4999355;28;92466;-73
2022/03/30 01:05:45;;;;;;;34.90;18.35;;;;;;;;;;4995850;28;92248;-73
2022/03/30 01:08:12;;;;;;;33.25;18.13;;;;;;;;;;4994806;28;94753;-74
2022/03/30 01:10:38;;;;;;;40.00;17.45;;;;;;;;;;4996223;28;94206;-74
2022/03/30 01:13:07;;;;;;;35.83;17.08;;;;;;;;;;4996419;28;92171;-73
2022/03/30 01:15:34;;;;;;;36.05;17.60;;;;;;;;;;4994463;28;94332;-73
2022/03/30 01:18:02;;;;;;;35.17;17.98;;;;;;;;;;4995846;28;93536;-72
2022/03/30 01:20:28;;;;;;;44.65;17.75;;;;;;;;;;4996018;28;92236;-73
2022/03/30 01:22:58;;;;;;;37.17;18.05;;;;;;;;;;4995044;28;94366;-73
2022/03/30 01:25:25;;;;;;;45.13;19.90;;;;;;;;;;4999511;28;92992;-73
2022/03/30 01:27:51;;;;;;;39.88;19.63;;;;;;;;;;4996183;28;92686;-75
2022/03/30 01:33:04;;;;;;;35.22;17.65;;;;;;;;;;4994550;28;94770;-73
2022/03/30 01:35:31;;;;;;;43.17;18.02;;;;;;;;;;4996085;28;95727;-73
2022/03/30 01:37:58;;;;;;;40.35;17.67;;;;;;;;;;4995702;28;93735;-73
2022/03/30 01:40:26;;;;;;;35.70;17.10;;;;;;;;;;4995855;28;92194;-72
2022/03/30 01:42:52;;;;;;;49.33;18.67;;;;;;;;;;4994940;28;93510;-73
2022/03/30 01:45:18;;;;;;;38.65;19.10;;;;;;;;;;4995617;28;93562;-73
2022/03/30 01:48:03;;;;;;;36.38;16.45;;;;;;;;;;4998730;28;92515;-73
2022/03/30 01:50:34;;;;;;;46.15;18.95;;;;;;;;;;4999456;28;95360;-75
2022/03/30 01:53:00;;;;;;;37.47;18.40;;;;;;;;;;4998504;28;92308;-74
2022/03/30 01:55:27;;;;;;;42.58;18.23;;;;;;;;;;4995985;28;93662;-73
2022/03/30 01:57:54;;;;;;;40.05;18.77;;;;;;;;;;4993329;28;96784;-73
2022/03/30 02:00:21;;;;;;;43.22;18.80;;;;;;;;;;4995809;28;92170;-73
2022/03/30 02:02:47;;;;;;;34.80;17.65;;;;;;;;;;4998655;28;93834;-73
2022/03/30 02:05:16;;;;;;;43.10;17.35;;;;;;;;;;4998760;28;93310;-73
2022/03/30 02:07:42;;;;;;;41.13;18.65;;;;;;;;;;5002147;28;92437;-72
2022/03/30 02:10:09;;;;;;;39.55;18.42;;;;;;;;;;4998927;28;93709;-73
2022/03/30 02:12:36;;;;;;;34.17;19.02;;;;;;;;;;4998528;28;92356;-73
2022/03/30 02:15:03;;;;;;;35.72;17.77;;;;;;;;;;4997019;28;92515;-72
2022/03/30 02:17:30;;;;;;;39.35;17.48;;;;;;;;;;4997414;28;93615;-72
2022/03/30 02:19:56;;;;;;;36.42;18.05;;;;;;;;;;4998876;28;92350;-71
2022/03/30 02:22:22;;;;;;;38.33;18.23;;;;;;;;;;4996360;28;95077;-72
2022/03/30 02:24:49;;;;;;;38.75;17.20;;;;;;;;;;4995112;28;95207;-72
2022/03/30 02:27:16;;;;;;;44.60;17.88;;;;;;;;;;4998688;28;92160;-72
2022/03/30 02:29:42;;;;;;;43.50;18.08;;;;;;;;;;5001117;28;93752;-71
2022/03/30 02:32:15;;;;;;;36.03;17.20;;;;;;;;;;4998657;28;92737;-72
2022/03/30 02:34:42;;;;;;;36.45;18.08;;;;;;;;;;4998293;28;93549;-72
2022/03/30 02:37:09;;;;;;;44.75;18.48;;;;;;;;;;4998771;28;93338;-73
2022/03/30 02:39:37;;;;;;;41.55;18.13;;;;;;;;;;4998854;28;91696;-72
2022/03/30 02:42:06;;;;;;;39.50;17.77;;;;;;;;;;4998443;28;92424;-72
2022/03/30 02:44:36;;;;;;;43.97;17.00;;;;;;;;;;4998135;28;94536;-72
2022/03/30 02:47:03;;;;;;;40.13;18.35;;;;;;;;;;4996295;28;94785;-73
2022/03/30 02:49:30;;;;;;;45.08;18.40;;;;;;;;;;4998404;28;94955;-73
2022/03/30 02:51:56;;;;;;;40.83;17.70;;;;;;;;;;5001347;28;92702;-71
2022/03/30 02:54:24;;;;;;;37.97;19.17;;;;;;;;;;4998217;28;93500;-72
2022/03/30 02:56:50;;;;;;;38.55;18.30;;;;;;;;;;4997818;28;93636;-72
2022/03/30 02:59:17;;;;;;;40.58;17.50;;;;;;;;;;4998659;28;92184;-73
2022/03/30 03:01:43;;;;;;;38.90;17.23;;;;;;;;;;4998128;28;93067;-73
2022/03/30 03:04:09;;;;;;;42.28;17.73;;;;;;;;;;4998713;28;93235;-73
2022/03/30 03:06:36;;;;;;;33.72;17.98;;;;;;;;;;4998187;28;92207;-73
2022/03/30 03:09:03;;;;;;;36.42;17.25;;;;;;;;;;5013781;28;92914;-72
2022/03/30 03:11:30;;;;;;;40.40;17.40;;;;;;;;;;4996101;28;95876;-73
2022/03/30 03:13:56;;;;;;;32.05;16.52;;;;;;;;;;4999322;28;92353;-72
2022/03/30 03:16:22;;;;;;;34.17;16.60;;;;;;;;;;4997972;28;93562;-74
2022/03/30 03:18:49;;;;;;;32.80;17.42;;;;;;;;;;4998023;28;92344;-74
2022/03/30 03:21:15;;;;;;;37.65;17.60;;;;;;;;;;4998243;28;92899;-74
2022/03/30 03:23:42;;;;;;;35.75;16.65;;;;;;;;;;4997890;28;93602;-74
2022/03/30 03:26:09;;;;;;;35.45;17.77;;;;;;;;;;4997552;28;92846;-73
2022/03/30 03:28:36;;;;;;;40.35;17.27;;;;;;;;;;4998066;28;92978;-73
2022/03/30 03:31:02;;;;;;;34.55;17.25;;;;;;;;;;4997706;28;93196;-73
2022/03/30 03:33:28;;;;;;;37.05;17.42;;;;;;;;;;4997841;28;92249;-75
2022/03/30 03:35:55;;;;;;;33.72;17.65;;;;;;;;;;4999249;28;94846;-74
2022/03/30 03:38:21;;;;;;;33.75;17.13;;;;;;;;;;4997702;28;92332;-75
2022/03/30 03:40:47;;;;;;;41.85;17.23;;;;;;;;;;4997434;28;93681;-74
2022/03/30 03:43:14;;;;;;;28.90;16.23;;;;;;;;;;4996324;28;94078;-74
2022/03/30 03:45:40;;;;;;;33.70;15.55;;;;;;;;;;4997168;28;92154;-73
2022/03/30 03:48:08;;;;;;;39.28;17.13;;;;;;;;;;4997271;28;92281;-74
2022/03/30 03:50:34;;;;;;;40.53;16.60;;;;;;;;;;4997393;28;93835;-74
2022/03/30 03:53:01;;;;;;;35.63;15.80;;;;;;;;;;4998098;28;91351;-74
2022/03/30 03:55:28;;;;;;;33.72;15.77;;;;;;;;;;4996947;28;93051;-73
2022/03/30 03:57:54;;;;;;;36.47;15.95;;;;;;;;;;5000391;28;93835;-75
2022/03/30 04:00:21;;;;;;;32.35;15.05;;;;;;;;;;4999605;28;94853;-74
2022/03/30 04:02:47;;;;;;;43.78;16.00;;;;;;;;;;4998101;28;93054;-74
2022/03/30 04:05:14;;;;;;;39.95;15.93;;;;;;;;;;4997535;28;93072;-73
2022/03/30 04:07:40;;;;;;;39.95;16.42;;;;;;;;;;4996986;28;92729;-75
2022/03/30 04:10:07;;;;;;;37.88;15.73;;;;;;;;;;4996682;28;93687;-74
2022/03/30 04:12:34;;;;;;;38.35;17.08;;;;;;;;;;4997281;28;92186;-73
2022/03/30 04:15:00;;;;;;;35.92;16.35;;;;;;;;;;4997211;28;93673;-74
2022/03/30 04:17:27;;;;;;;34.33;15.43;;;;;;;;;;5000661;28;92848;-75
2022/03/30 04:19:53;;;;;;;38.25;15.98;;;;;;;;;;4996690;28;93126;-73
2022/03/30 04:22:20;;;;;;;45.00;16.17;;;;;;;;;;4996239;28;94548;-73
2022/03/30 04:24:46;;;;;;;34.33;15.90;;;;;;;;;;4994386;28;94775;-74
2022/03/30 04:27:13;;;;;;;35.72;17.05;;;;;;;;;;4996875;28;95818;-74
2022/03/30 04:29:39;;;;;;;42.03;17.63;;;;;;;;;;4996829;28;93750;-74
2022/03/30 04:32:06;;;;;;;36.67;17.27;;;;;;;;;;4996841;28;92250;-73
2022/03/30 04:34:32;;;;;;;39.55;17.35;;;;;;;;;;4996749;28;93506;-74
2022/03/30 04:36:58;;;;;;;41.97;17.48;;;;;;;;;;4996086;28;93497;-74
2022/03/30 04:39:26;;;;;;;37.25;16.80;;;;;;;;;;5015713;28;92269;-73
2022/03/30 04:41:52;;;;;;;38.67;16.63;;;;;;;;;;5012961;28;92267;-73
2022/03/30 04:44:20;;;;;;;42.03;16.52;;;;;;;;;;4996670;28;92261;-74
2022/03/30 04:46:46;;;;;;;38.30;16.65;;;;;;;;;;4996407;28;94044;-74
2022/03/30 04:49:13;;;;;;;34.25;15.55;;;;;;;;;;4994795;28;96245;-73
2022/03/30 04:51:39;;;;;;;53.22;17.30;;;;;;;;;;5011422;28;92469;-74
2022/03/30 04:54:05;;;;;;;33.60;16.30;;;;;;;;;;4995196;28;94287;-74
2022/03/30 04:56:32;;;;;;;37.38;16.95;;;;;;;;;;4996527;28;93166;-73
2022/03/30 04:58:58;;;;;;;42.25;15.65;;;;;;;;;;4996869;28;92285;-73
2022/03/30 05:01:24;;;;;;;33.60;15.73;;;;;;;;;;4999509;28;93526;-73
2022/03/30 05:03:51;;;;;;;38.15;16.23;;;;;;;;;;5003212;28;92145;-74
2022/03/30 05:06:18;;;;;;;47.45;16.65;;;;;;;;;;5006381;28;93371;-74
2022/03/30 05:08:44;;;;;;;46.15;16.00;;;;;;;;;;5005791;28;93696;-74
2022/03/30 05:11:10;;;;;;;41.10;16.40;;;;;;;;;;5003030;28;92142;-74
2022/03/30 05:13:37;;;;;;;39.88;15.60;;;;;;;;;;5002729;28;94760;-73
2022/03/30 05:16:03;;;;;;;31.85;15.70;;;;;;;;;;5002605;28;93249;-73
2022/03/30 05:18:29;;;;;;;36.60;16.10;;;;;;;;;;5009855;28;92340;-74
2022/03/30 05:20:58;;;;;;;34.30;14.00;;;;;;;;;;4996398;28;93843;-74
2022/03/30 05:23:25;;;;;;;30.38;14.52;;;;;;;;;;4999228;28;93102;-72
2022/03/30 05:25:51;;;;;;;27.13;14.32;;;;;;;;;;4996283;28;92706;-73
2022/03/30 05:28:18;;;;;;;29.27;14.10;;;;;;;;;;4995744;28;93711;-72
2022/03/30 05:30:45;;;;;;;33.20;14.65;;;;;;;;;;4996708;28;91527;-73
2022/03/30 05:33:11;;;;;;;26.52;13.23;;;;;;;;;;4996249;28;92259;-74
2022/03/30 05:35:38;;;;;;;34.63;14.68;;;;;;;;;;4994768;28;93203;-74
2022/03/30 05:38:04;;;;;;;27.58;15.45;;;;;;;;;;4997690;28;94563;-73
2022/03/30 05:40:31;;;;;;;29.25;13.65;;;;;;;;;;4999486;28;95743;-73
2022/03/30 05:42:58;;;;;;;30.63;14.55;;;;;;;;;;4999566;28;93695;-74
2022/03/30 05:45:24;;;;;;;28.27;14.45;;;;;;;;;;5002629;28;92332;-74
2022/03/30 05:47:50;;;;;;;31.00;14.20;;;;;;;;;;4998878;28;93256;-73
2022/03/30 05:50:18;;;;;;;42.28;13.95;;;;;;;;;;4999316;28;92321;-75
2022/03/30 05:52:44;;;;;;;47.22;15.13;;;;;;;;;;4999266;28;93481;-74
2022/03/30 05:55:10;;;;;;;50.85;16.08;;;;;;;;;;4999620;28;93123;-74
2022/03/30 05:57:37;;;;;;;43.03;16.48;;;;;;;;;;4999528;28;92345;-74
2022/03/30 06:00:06;;;;;;;38.58;15.43;;;;;;;;;;4998912;28;94575;-74
2022/03/30 06:02:39;;;;;;;42.15;14.75;;;;;;;;;;4996774;28;95896;-74
2022/03/30 06:05:05;;;;;;;46.55;16.48;;;;;;;;;;4998843;28;92148;-74
2022/03/30 06:07:32;;;;;;;31.73;14.93;;;;;;;;;;5001699;28;93633;-74
2022/03/30 06:09:59;;;;;;;37.45;15.77;;;;;;;;;;5001588;28;92343;-74
2022/03/30 06:12:25;;;;;;;40.55;15.48;;;;;;;;;;5001887;28;93410;-74
2022/03/30 06:14:52;;;;;;;40.95;14.82;;;;;;;;;;4998401;28;94850;-75
2022/03/30 06:17:19;;;;;;;28.65;15.13;;;;;;;;;;4998491;28;92551;-73
2022/03/30 06:19:46;;;;;;;35.05;14.75;;;;;;;;;;4999110;28;93420;-74
2022/03/30 06:22:13;;;;;;;46.28;14.93;;;;;;;;;;4998878;28;92942;-74
2022/03/30 06:24:40;;;;;;;37.88;15.10;;;;;;;;;;4998640;28;92247;-72
2022/03/30 06:27:07;;;;;;;28.88;14.50;;;;;;;;;;5000418;28;94764;-72
2022/03/30 06:29:34;;;;;;;32.15;14.23;;;;;;;;;;4998393;28;92476;-72
2022/03/30 06:32:00;;;;;;;29.85;16.20;;;;;;;;;;4998497;28;93496;-74
2022/03/30 06:34:27;;;;;;;28.50;16.00;;;;;;;;;;4998273;28;93525;-73
2022/03/30 06:36:53;;;;;;;41.20;16.05;;;;;;;;;;4998480;28;92258;-72
2022/03/30 06:39:19;;;;;;;29.25;15.93;;;;;;;;;;4998739;28;93376;-72
2022/03/30 06:41:46;;;;;;;27.65;15.70;;;;;;;;;;4998490;28;92981;-73
2022/03/30 06:44:13;;;;;;;28.67;16.15;;;;;;;;;;4998577;28;91865;-70
2022/03/30 06:46:39;;;;;;;30.65;15.80;;;;;;;;;;4998087;28;92241;-72
2022/03/30 06:49:06;;;;;;;30.98;16.15;;;;;;;;;;5000286;28;92849;-71
2022/03/30 06:51:33;;;;;;;36.38;16.27;;;;;;;;;;4996747;28;94655;-72
2022/03/30 06:53:59;;;;;;;34.47;16.58;;;;;;;;;;4998087;28;94004;-71
2022/03/30 06:56:26;;;;;;;34.85;15.90;;;;;;;;;;4998180;28;92253;-73
2022/03/30 06:58:53;;;;;;;32.78;15.80;;;;;;;;;;4998038;28;92841;-71
2022/03/30 07:01:19;;;;;;;31.10;16.63;;;;;;;;;;4997321;28;93086;-74
2022/03/30 07:03:46;;;;;;;32.92;16.48;;;;;;;;;;4998004;28;92413;-72
2022/03/30 07:06:12;;;;;;;33.03;17.30;;;;;;;;;;4998078;28;93395;-74
2022/03/30 07:11:24;;;;;;;39.75;16.50;;;;;;;;;;5000661;28;92230;-73
2022/03/30 07:13:56;;;;;;;60.78;17.80;;;;;;;;;;4997962;28;93143;-72
2022/03/30 07:16:23;;;;;;;53.45;18.67;;;;;;;;;;4996215;28;94725;-70
2022/03/30 07:18:50;;;;;;;37.85;17.50;;;;;;;;;;4997492;28;95711;-69
2022/03/30 07:21:17;;;;;;;40.63;16.10;;;;;;;;;;4997702;28;94043;-71
2022/03/30 07:23:43;;;;;;;38.20;16.83;;;;;;;;;;4997778;28;92263;-72
2022/03/30 07:26:10;;;;;;;48.08;16.50;;;;;;;;;;4996371;28;94295;-72
2022/03/30 07:28:38;;;;;;;42.83;16.92;;;;;;;;;;4996243;28;96077;-72
2022/03/30 07:31:04;;;;;;;35.63;16.27;;;;;;;;;;4997592;28;92154;-74
2022/03/30 07:33:33;;;;;;;42.28;17.42;;;;;;;;;;5001291;28;93447;-71
2022/03/30 07:35:59;;;;;;;44.17;16.48;;;;;;;;;;4997655;28;92247;-73
2022/03/30 07:38:26;;;;;;;35.72;15.25;;;;;;;;;;4995758;28;94427;-73
2022/03/30 07:40:54;;;;;;;36.75;15.23;;;;;;;;;;4995714;28;96207;-72
2022/03/30 07:43:20;;;;;;;45.72;15.48;;;;;;;;;;4997690;28;92237;-72
2022/03/30 07:45:47;;;;;;;38.58;15.75;;;;;;;;;;4997132;28;93895;-73
2022/03/30 07:48:13;;;;;;;42.08;14.38;;;;;;;;;;4996892;28;94758;-73
2022/03/30 07:50:40;;;;;;;44.58;15.70;;;;;;;;;;4996027;28;92729;-72
2022/03/30 07:53:08;;;;;;;35.42;14.95;;;;;;;;;;4996905;28;93603;-73
2022/03/30 07:55:35;;;;;;;34.42;14.77;;;;;;;;;;5000272;28;93525;-73
2022/03/30 07:58:02;;;;;;;29.33;13.23;;;;;;;;;;4995881;28;93435;-72
2022/03/30 08:00:29;;;;;;;31.15;14.57;;;;;;;;;;4995764;28;93689;-70
2022/03/30 08:02:55;;;;;;;26.52;14.32;;;;;;;;;;4996575;28;92241;-72
2022/03/30 08:05:22;;;;;;;25.13;13.75;;;;;;;;;;4995001;28;95444;-72
2022/03/30 08:07:49;;;;;;;30.00;14.23;;;;;;;;;;4995277;28;95128;-73
2022/03/30 08:10:16;;;;;;;36.20;14.63;;;;;;;;;;4997022;28;92257;-72
2022/03/30 08:12:42;;;;;;;29.92;14.02;;;;;;;;;;4997097;28;93450;-72
2022/03/30 08:15:11;;;;;;;25.50;13.82;;;;;;;;;;4996216;28;93294;-69
2022/03/30 08:17:38;;;;;;;31.85;15.07;;;;;;;;;;4999762;28;92149;-69
2022/03/30 08:20:04;;;;;;;37.60;14.65;;;;;;;;;;4996643;28;94346;-69
2022/03/30 08:22:31;;;;;;;23.60;13.40;;;;;;;;;;5002778;28;91525;-68
2022/03/30 08:25:07;;;;;;;23.38;13.82;;;;;;;;;;4996880;28;93712;-69
2022/03/30 08:27:34;;;;;;;23.52;13.80;;;;;;;;;;4996770;28;93505;-70
2022/03/30 08:30:01;;;;;;;33.15;14.32;;;;;;;;;;4994817;28;94770;-69
2022/03/30 08:32:28;;;;;;;21.50;12.27;;;;;;;;;;4996859;28;96076;-69
2022/03/30 08:34:55;;;;;;;24.00;12.77;;;;;;;;;;4996440;28;93595;-71
2022/03/30 08:37:22;;;;;;;23.92;12.65;;;;;;;;;;5000102;28;92225;-75
2022/03/30 08:39:53;;;;;;;23.55;12.00;;;;;;;;;;4995486;28;94273;-74
2022/03/30 08:42:21;;;;;;;22.40;12.73;;;;;;;;;;4996779;28;92224;-75
2022/03/30 08:44:49;;;;;;;21.52;11.60;;;;;;;;;;4996927;28;92814;-74
2022/03/30 08:47:15;;;;;;;21.77;11.90;;;;;;;;;;4996412;28;92329;-74
2022/03/30 08:49:44;;;;;;;24.73;11.90;;;;;;;;;;4996261;28;92469;-70
2022/03/30 08:52:11;;;;;;;18.45;11.63;;;;;;;;;;4996555;28;93575;-73
2022/03/30 08:54:41;;;;;;;21.75;11.05;;;;;;;;;;4994412;28;96490;-70
2022/03/30 08:57:07;;;;;;;24.75;11.23;;;;;;;;;;4996744;28;92563;-75
2022/03/30 08:59:34;;;;;;;29.33;12.40;;;;;;;;;;4999743;28;93343;-75
2022/03/30 09:02:00;;;;;;;23.05;12.98;;;;;;;;;;4996406;28;92321;-75
2022/03/30 09:04:27;;;;;;;19.02;11.55;;;;;;;;;;4996404;28;93300;-74
2022/03/30 09:06:58;;;;;;;15.45;10.45;;;;;;;;;;4993187;28;93288;-75
2022/03/30 09:09:27;;;;;;;17.63;10.80;;;;;;;;;;4996270;28;92412;-74
2022/03/30 09:11:55;;;;;;;16.58;11.73;;;;;;;;;;4995347;28;92797;-75
2022/03/30 09:14:26;;;;;;;20.52;11.65;;;;;;;;;;4996010;28;93599;-74
2022/03/30 09:16:55;;;;;;;22.42;12.07;;;;;;;;;;4996117;28;92194;-75
2022/03/30 09:19:21;;;;;;;21.17;11.55;;;;;;;;;;4993512;28;95540;-75
2022/03/30 09:21:49;;;;;;;14.00;11.25;;;;;;;;;;4980287;28;93109;-74
2022/03/30 09:24:19;;;;;;;15.18;10.20;;;;;;;;;;4995803;28;94045;-74
2022/03/30 09:26:47;;;;;;;13.93;9.38;;;;;;;;;;4996203;28;93309;-75
2022/03/30 09:29:13;;;;;;;15.60;10.00;;;;;;;;;;4996508;28;92302;-75
2022/03/30 09:31:41;;;;;;;16.92;9.30;;;;;;;;;;4996090;28;93295;-76
2022/03/30 09:34:09;;;;;;;12.13;8.90;;;;;;;;;;4996801;28;93879;-75
2022/03/30 09:36:37;;;;;;;18.05;10.77;;;;;;;;;;4997512;28;91534;-74
2022/03/30 09:39:04;;;;;;;15.32;9.52;;;;;;;;;;4996004;28;92719;-76
2022/03/30 09:41:46;;;;;;;10.45;8.52;;;;;;;;;;4996127;28;93684;-75
2022/03/30 09:44:13;;;;;;;11.07;8.65;;;;;;;;;;4998443;28;94665;-74
2022/03/30 09:46:49;;;;;;;10.20;8.80;;;;;;;;;;4996618;28;93551;-75
2022/03/30 09:49:37;;;;;;;10.25;7.97;;;;;;;;;;4996860;28;93470;-74
2022/03/30 09:52:29;;;;;;;10.60;8.02;;;;;;;;;;4996231;28;93476;-75
2022/03/30 09:54:57;;;;;;;8.10;6.80;;;;;;;;;;4994699;28;95580;-76
2022/03/30 09:57:28;;;;;;;13.13;8.60;;;;;;;;;;4996676;28;92356;-73
2022/03/30 10:00:05;;;;;;;16.75;8.05;;;;;;;;;;4996883;28;92887;-75
2022/03/30 10:02:36;;;;;;;9.25;6.70;;;;;;;;;;4996111;28;92219;-76
2022/03/30 10:05:04;;;;;;;14.15;7.40;;;;;;;;;;4996517;28;92304;-76
2022/03/30 10:07:30;;;;;;;10.60;7.75;;;;;;;;;;4999249;28;94834;-75
2022/03/30 10:09:57;;;;;;;8.30;6.75;;;;;;;;;;4993596;28;94754;-73
2022/03/30 10:12:26;;;;;;;9.05;7.07;;;;;;;;;;4996383;28;95700;-78
2022/03/30 10:14:54;;;;;;;8.65;7.45;;;;;;;;;;4994888;28;94106;-76
2022/03/30 10:17:22;;;;;;;9.40;7.05;;;;;;;;;;4996453;28;92232;-77
2022/03/30 10:19:52;;;;;;;9.02;7.45;;;;;;;;;;4996849;28;92815;-76
2022/03/30 10:22:28;;;;;;;9.60;7.10;;;;;;;;;;4996326;28;93208;-74
2022/03/30 10:25:12;;;;;;;8.77;6.93;;;;;;;;;;4999427;28;92268;-76
2022/03/30 10:27:50;;;;;;;13.25;7.88;;;;;;;;;;5002558;28;93907;-75
2022/03/30 10:30:22;;;;;;;8.48;7.63;;;;;;;;;;5001234;28;92060;-76
2022/03/30 10:32:55;;;;;;;8.95;6.38;;;;;;;;;;5004693;28;92407;-76
2022/03/30 10:35:36;;;;;;;11.37;7.40;;;;;;;;;;4998298;28;95860;-75
2022/03/30 10:38:02;;;;;;;9.75;6.13;;;;;;;;;;4999438;28;92366;-74
2022/03/30 10:40:29;;;;;;;8.75;6.47;;;;;;;;;;4999689;28;94492;-76
2022/03/30 10:42:59;;;;;;;10.55;6.57;;;;;;;;;;4999483;28;93193;-75
2022/03/30 10:45:28;;;;;;;8.93;6.47;;;;;;;;;;5000428;28;92411;-75
2022/03/30 10:48:05;;;;;;;8.73;5.97;;;;;;;;;;5006815;28;93131;-77
2022/03/30 10:50:33;;;;;;;6.45;5.85;;;;;;;;;;5012852;28;93538;-75
2022/03/30 10:52:59;;;;;;;8.18;5.35;;;;;;;;;;5008592;28;91645;-75
2022/03/30 10:55:27;;;;;;;7.43;5.10;;;;;;;;;;5008466;28;93397;-76
2022/03/30 10:57:57;;;;;;;6.40;4.60;;;;;;;;;;5009221;28;92209;-76
2022/03/30 11:00:25;;;;;;;6.80;4.50;;;;;;;;;;5000637;28;94766;-77
2022/03/30 11:02:51;;;;;;;5.22;4.70;;;;;;;;;;5001826;28;92137;-77
2022/03/30 11:05:26;;;;;;;5.88;4.60;;;;;;;;;;5001956;28;92368;-77
2022/03/30 11:07:52;;;;;;;9.32;5.07;;;;;;;;;;5000939;28;93819;-77
2022/03/30 11:10:26;;;;;;;9.18;5.00;;;;;;;;;;4999031;28;93939;-76
2022/03/30 11:13:02;;;;;;;8.45;4.43;;;;;;;;;;5002253;28;92618;-77
2022/03/30 11:15:29;;;;;;;7.95;3.30;;;;;;;;;;4998737;28;94183;-75
2022/03/30 11:18:18;;;;;;;25.05;4.80;;;;;;;;;;4999599;28;91399;-78
2022/03/30 11:21:03;;;;;;;6.53;4.25;;;;;;;;;;4998979;28;92978;-76
2022/03/30 11:23:30;;;;;;;20.58;4.70;;;;;;;;;;4998499;28;92712;-79
2022/03/30 11:26:01;;;;;;;10.32;3.65;;;;;;;;;;4997181;28;94715;-77
2022/03/30 11:28:33;;;;;;;;;;;;;;;;;;4999517;28;95176;-75
2022/03/30 11:31:01;;;;;;;4.38;3.97;;;;;;;;;;4997231;28;124569;-76
2022/03/30 11:33:31;;;;;;;4.32;3.95;;;;;;;;;;4998333;28;92278;-75
2022/03/30 11:35:57;;;;;;;31.60;4.30;;;;;;;;;;5001178;28;93446;-75
2022/03/30 11:38:34;;;;;;;8.45;2.58;;;;;;;;;;4998287;28;92327;-74
2022/03/30 11:41:06;;;;;;;8.90;2.97;;;;;;;;;;4998687;28;92682;-75
2022/03/30 11:46:32;;;;;;;11.63;4.22;;;;;;;;;;4998130;28;92339;-70
2022/03/30 11:49:00;;;;;;;4.50;3.25;;;;;;;;;;4998089;28;93808;-70
2022/03/30 11:51:27;;;;;;;13.40;2.70;;;;;;;;;;4996423;28;96772;-70
2022/03/30 11:54:12;;;;;;;5.72;2.58;;;;;;;;;;4998558;28;92597;-70
2022/03/30 11:56:39;;;;;;;21.48;2.58;;;;;;;;;;4998379;28;92574;-71
2022/03/30 11:59:06;;;;;;;5.38;2.40;;;;;;;;;;5000727;28;93633;-70
2022/03/30 12:01:37;;;;;;;;;;;;;;;;;;4998456;28;93166;-71
2022/03/30 12:04:04;;;;;;;3.10;2.45;;;;;;;;;;4995927;28;123039;-75
2022/03/30 12:06:31;;;;;;;12.57;2.50;;;;;;;;;;4998242;28;92299;-75
2022/03/30 12:09:01;;;;;;;8.23;2.20;;;;;;;;;;4998538;28;93425;-74
2022/03/30 12:11:29;;;;;;;31.15;3.95;;;;;;;;;;4997817;28;94026;-74
2022/03/30 12:13:59;;;;;;;8.40;2.03;;;;;;;;;;4997606;28;92490;-74
2022/03/30 12:16:27;;;;;;;9.80;2.38;;;;;;;;;;4995851;28;95154;-74
2022/03/30 12:18:54;;;;;;;5.68;2.20;;;;;;;;;;4997433;28;95026;-73
2022/03/30 12:21:47;;;;;;;11.02;2.13;;;;;;;;;;5001005;28;92183;-73
2022/03/30 12:24:16;;;;;;;2.67;2.47;;;;;;;;;;4995969;28;93018;-74
2022/03/30 12:26:48;;;;;;;10.02;2.50;;;;;;;;;;4998008;28;92405;-74
2022/03/30 12:29:15;;;;;;;4.13;2.65;;;;;;;;;;4997659;28;93445;-76
2022/03/30 12:31:49;;;;;;;6.72;2.17;;;;;;;;;;4997360;28;93809;-73
2022/03/30 12:34:17;;;;;;;2.53;2.30;;;;;;;;;;4998244;28;91726;-77
2022/03/30 12:36:48;;;;;;;25.02;3.03;;;;;;;;;;4997792;28;92519;-73
2022/03/30 12:39:19;;;;;;;7.80;2.33;;;;;;;;;;4997258;28;94756;-76
2022/03/30 12:41:55;;;;;;;14.13;2.30;;;;;;;;;;5003409;28;94546;-74
2022/03/30 12:44:21;;;;;;;22.92;2.95;;;;;;;;;;4999311;28;94021;-74
2022/03/30 12:46:51;;;;;;;6.68;2.42;;;;;;;;;;4996061;28;92192;-75
2022/03/30 12:49:18;;;;;;;17.90;3.00;;;;;;;;;;4997023;28;93729;-75
2022/03/30 12:51:51;;;;;;;9.18;2.58;;;;;;;;;;4997282;28;93017;-74
2022/03/30 12:54:21;;;;;;;18.45;3.42;;;;;;;;;;4997498;28;92282;-75
2022/03/30 12:56:48;;;;;;;7.47;2.20;;;;;;;;;;4997339;28;93621;-75
2022/03/30 12:59:19;;;;;;;7.88;2.63;;;;;;;;;;4997257;28;93876;-76
2022/03/30 13:01:49;;;;;;;10.05;2.40;;;;;;;;;;4996735;28;92277;-75
2022/03/30 13:04:20;;;;;;;8.93;2.30;;;;;;;;;;4999708;28;95195;-75
2022/03/30 13:07:05;;;;;;;2.53;2.43;;;;;;;;;;4995352;28;94755;-75
2022/03/30 13:09:31;;;;;;;13.80;2.47;;;;;;;;;;4997052;28;95148;-78
2022/03/30 13:11:57;;;;;;;3.28;2.47;;;;;;;;;;4997091;28;93399;-74
2022/03/30 13:14:24;;;;;;;3.35;2.58;;;;;;;;;;4996648;28;92352;-75
2022/03/30 13:16:58;;;;;;;12.38;2.90;;;;;;;;;;4996265;28;92840;-75
2022/03/30 13:19:25;;;;;;;2.72;2.53;;;;;;;;;;4996528;28;93755;-74
2022/03/30 13:21:52;;;;;;;8.45;2.88;;;;;;;;;;4997217;28;92263;-75
2022/03/30 13:24:24;;;;;;;9.95;2.92;;;;;;;;;;4997376;28;94339;-74
2022/03/30 13:26:57;;;;;;;6.93;2.75;;;;;;;;;;4999503;28;94734;-75
2022/03/30 13:29:24;;;;;;;6.93;2.95;;;;;;;;;;4997027;28;93641;-75
2022/03/30 13:31:50;;;;;;;10.82;2.63;;;;;;;;;;4994941;28;96027;-75
2022/03/30 13:34:18;;;;;;;6.53;2.80;;;;;;;;;;4996992;28;92259;-74
2022/03/30 13:36:45;;;;;;;7.25;2.40;;;;;;;;;;4996753;28;92912;-76
2022/03/30 13:39:12;;;;;;;18.88;3.17;;;;;;;;;;4996784;28;93585;-77
2022/03/30 13:41:39;;;;;;;14.18;3.03;;;;;;;;;;4996892;28;92141;-76
2022/03/30 13:44:06;;;;;;;68.68;5.72;;;;;;;;;;4995495;28;96777;-77
2022/03/30 13:46:38;;;;;;;6.22;2.92;;;;;;;;;;4995841;28;93045;-77
2022/03/30 13:49:05;;;;;;;3.17;2.50;;;;;;;;;;5000229;28;91497;-79
2022/03/30 13:51:32;;;;;;;10.85;2.70;;;;;;;;;;4995182;28;96017;-76
2022/03/30 13:53:59;;;;;;;5.45;2.65;;;;;;;;;;4996366;28;92435;-75
2022/03/30 13:56:25;;;;;;;3.45;2.83;;;;;;;;;;4995269;28;94733;-76
2022/03/30 13:58:53;;;;;;;12.32;2.90;;;;;;;;;;4999249;28;94610;-75
2022/03/30 14:01:20;;;;;;;8.35;3.20;;;;;;;;;;5000021;28;92508;-75
2022/03/30 14:03:47;;;;;;;3.05;2.75;;;;;;;;;;4999896;28;93497;-74
2022/03/30 14:10:33;;;;;;;5.00;2.72;;;;;;;;;;5002856;28;92440;-81
2022/03/30 14:13:00;;;;;;;5.53;2.80;;;;;;;;;;5002012;28;96237;-80
2022/03/30 14:15:27;;;;;;;3.00;2.80;;;;;;;;;;5001021;28;91413;-82
2022/03/30 14:17:53;;;;;;;3.45;2.58;;;;;;;;;;4982477;28;94900;-83
2022/03/30 14:20:21;;;;;;;6.95;2.70;;;;;;;;;;4998711;28;96056;-81
2022/03/30 14:22:49;;;;;;;2.50;2.35;;;;;;;;;;4980099;28;94719;-79
2022/03/30 14:25:18;;;;;;;4.35;2.80;;;;;;;;;;4982094;28;96834;-80
2022/03/30 14:27:47;;;;;;;3.38;2.70;;;;;;;;;;4981025;28;94310;-81
2022/03/30 14:30:19;;;;;;;5.85;2.58;;;;;;;;;;4981206;28;92408;-81
2022/03/30 14:32:59;;;;;;;3.92;2.50;;;;;;;;;;4980972;28;95699;-81
2022/03/30 14:35:35;;;;;;;3.10;2.85;;;;;;;;;;5001275;28;93044;-83
2022/03/30 14:38:09;;;;;;;4.47;2.72;;;;;;;;;;4980287;28;93446;-83
2022/03/30 14:40:43;;;;;;;5.75;2.65;;;;;;;;;;4965539;28;94776;-80
2022/03/30 14:43:20;;;;;;;4.43;2.65;;;;;;;;;;4981007;28;92320;-83
2022/03/30 14:45:50;;;;;;;5.13;2.53;;;;;;;;;;4964848;28;95093;-77